createdAt,value
2022-11-27T00:03:26.356Z,1.95
2022-11-27T00:08:30.190Z,2.20
2022-11-27T00:13:33.850Z,2.00
2022-11-27T00:18:39.619Z,2.05
2022-11-27T00:23:43.795Z,1.77
2022-11-27T00:28:47.500Z,2.20
2022-11-27T00:33:55.475Z,1.73
2022-11-27T00:38:59.185Z,1.80
2022-11-27T00:44:02.892Z,1.80
2022-11-27T00:49:08.441Z,2.10
2022-11-27T00:54:12.128Z,1.90
2022-11-27T00:59:15.809Z,2.05
2022-11-27T01:04:20.796Z,2.50
2022-11-27T01:09:24.545Z,2.22
2022-11-27T01:14:28.156Z,2.40
2022-11-27T01:19:33.222Z,2.33
2022-11-27T01:24:36.980Z,2.17
2022-11-27T01:29:41.070Z,2.35
2022-11-27T01:34:46.213Z,2.22
2022-11-27T01:39:49.894Z,2.50
2022-11-27T01:44:56.422Z,2.13
2022-11-27T01:50:08.338Z,1.58
2022-11-27T01:55:19.044Z,1.88
2022-11-27T02:00:23.647Z,1.88
2022-11-27T02:05:29.562Z,1.40
2022-11-27T02:10:44.360Z,1.55
2022-11-27T02:15:53.958Z,1.33
2022-11-27T02:21:09.060Z,1.60
2022-11-27T02:26:29.006Z,1.73
2022-11-27T02:31:41.033Z,1.45
2022-11-27T02:36:50.822Z,1.58
2022-11-27T02:42:00.750Z,1.30
2022-11-27T02:47:06.589Z,1.50
2022-11-27T02:52:13.445Z,1.55
2022-11-27T02:57:18.580Z,1.20
2022-11-27T03:02:28.803Z,1.55
2022-11-27T03:07:37.046Z,1.10
2022-11-27T03:12:40.798Z,1.45
2022-11-27T03:17:54.692Z,1.50
2022-11-27T03:22:58.895Z,1.55
2022-11-27T03:28:06.060Z,1.60
2022-11-27T03:33:11.510Z,1.23
2022-11-27T03:38:15.249Z,1.25
2022-11-27T03:43:24.396Z,1.45
2022-11-27T03:48:34.981Z,1.65
2022-11-27T03:53:50.002Z,1.52
2022-11-27T03:58:57.307Z,1.38
2022-11-27T04:04:02.386Z,1.65
2022-11-27T04:09:06.350Z,1.50
2022-11-27T04:14:10.118Z,1.60
2022-11-27T04:19:15.190Z,1.75
2022-11-27T04:24:18.845Z,1.45
2022-11-27T04:29:22.422Z,1.90
2022-11-27T04:34:27.457Z,1.83
2022-11-27T04:39:31.079Z,1.30
2022-11-27T04:44:34.814Z,1.52
2022-11-27T04:49:39.757Z,1.33
2022-11-27T04:54:43.584Z,1.60
2022-11-27T04:59:47.382Z,1.25
2022-11-27T05:04:52.391Z,1.55
2022-11-27T05:09:56.083Z,1.40
2022-11-27T05:15:03.149Z,1.60
2022-11-27T05:20:10.612Z,1.40
2022-11-27T05:25:14.284Z,1.52
2022-11-27T05:30:17.903Z,1.33
2022-11-27T05:35:22.944Z,1.55
2022-11-27T05:40:26.705Z,1.63
2022-11-27T05:45:30.301Z,1.65
2022-11-27T05:50:35.362Z,1.92
2022-11-27T05:55:41.740Z,1.63
2022-11-27T06:00:45.511Z,1.70
2022-11-27T06:05:50.474Z,1.45
2022-11-27T06:10:54.163Z,1.38
2022-11-27T06:15:57.884Z,1.77
2022-11-27T06:21:06.687Z,1.70
2022-11-27T06:26:12.139Z,1.83
2022-11-27T06:31:18.500Z,1.50
2022-11-27T06:36:24.939Z,1.52
2022-11-27T06:41:29.356Z,1.93
2022-11-27T06:46:33.062Z,1.95
2022-11-27T06:51:38.085Z,1.77
2022-11-27T06:56:41.921Z,1.50
2022-11-27T07:01:45.929Z,2.00
2022-11-27T07:06:51.049Z,2.00
2022-11-27T07:11:54.665Z,2.05
2022-11-27T07:16:58.431Z,1.90
2022-11-27T07:22:03.549Z,2.10
2022-11-27T07:27:07.237Z,2.08
2022-11-27T07:32:10.919Z,2.30
2022-11-27T07:37:15.889Z,1.88
2022-11-27T07:47:43.298Z,2.60
2022-11-27T07:52:48.286Z,2.83
2022-11-27T07:57:52.256Z,2.85
2022-11-27T08:02:55.918Z,2.72
2022-11-27T08:08:04.281Z,2.15
2022-11-27T08:13:08.283Z,2.63
2022-11-27T08:18:12.001Z,2.42
2022-11-27T08:23:17.006Z,2.72
2022-11-27T08:28:20.687Z,2.47
2022-11-27T08:33:24.448Z,2.20
2022-11-27T08:38:29.836Z,2.28
2022-11-27T08:43:33.943Z,2.50
2022-11-27T08:48:39.920Z,2.70
2022-11-27T08:53:45.800Z,2.00
2022-11-27T08:58:50.599Z,2.10
2022-11-27T09:03:57.051Z,2.67
2022-11-27T09:09:03.746Z,2.20
2022-11-27T09:14:08.787Z,1.60
2022-11-27T09:19:12.886Z,2.60
2022-11-27T09:24:18.053Z,2.03
2022-11-27T09:29:21.985Z,2.17
2022-11-27T09:34:25.744Z,2.72
2022-11-27T09:39:33.944Z,2.15
2022-11-27T09:44:42.946Z,2.67
2022-11-27T09:49:51.858Z,2.33
2022-11-27T09:55:02.909Z,2.00
2022-11-27T10:00:12.586Z,1.75
2022-11-27T10:05:20.408Z,2.25
2022-11-27T10:10:37.467Z,2.33
2022-11-27T10:15:49.602Z,2.47
2022-11-27T10:20:56.830Z,2.75
2022-11-27T10:26:07.249Z,2.67
2022-11-27T10:31:15.359Z,3.00
2022-11-27T10:36:29.540Z,2.55
2022-11-27T10:41:49.273Z,2.60
2022-11-27T10:46:58.050Z,2.63
2022-11-27T10:52:01.696Z,2.80
2022-11-27T10:57:38.964Z,3.03
2022-11-27T11:02:43.431Z,2.63
2022-11-27T11:07:59.436Z,2.60
2022-11-27T11:13:18.330Z,2.53
2022-11-27T11:18:23.948Z,2.90
2022-11-27T11:23:32.077Z,2.35
2022-11-27T11:28:48.596Z,2.22
2022-11-27T11:33:56.460Z,2.85
2022-11-27T11:39:00.621Z,2.55
2022-11-27T11:44:05.801Z,2.50
2022-11-27T11:49:20.576Z,2.45
2022-11-27T11:54:48.488Z,2.97
2022-11-27T12:00:01.450Z,3.72
2022-11-27T12:05:19.725Z,2.75
2022-11-27T12:10:29.969Z,2.90
2022-11-27T12:15:39.870Z,3.13
2022-11-27T12:20:54.869Z,3.20
2022-11-27T12:26:07.240Z,3.55
2022-11-27T12:31:27.798Z,3.13
2022-11-27T12:36:54.824Z,2.97
2022-11-27T12:47:18.229Z,3.20
2022-11-27T12:52:25.681Z,3.55
2022-11-27T12:57:37.853Z,3.25
2022-11-27T13:02:47.616Z,3.17
2022-11-27T13:07:56.780Z,2.72
2022-11-27T13:13:07.049Z,2.90
2022-11-27T13:18:19.979Z,2.80
2022-11-27T13:23:23.687Z,3.08
2022-11-27T13:28:40.642Z,3.13
2022-11-27T13:33:47.468Z,3.45
2022-11-27T13:38:57.715Z,2.17
2022-11-27T13:44:01.788Z,2.70
2022-11-27T13:49:07.642Z,3.45
2022-11-27T13:54:13.608Z,3.60
2022-11-27T13:59:20.949Z,3.13
2022-11-27T14:04:26.267Z,3.38
2022-11-27T14:09:42.386Z,3.78
2022-11-27T14:14:57.862Z,3.70
2022-11-27T14:20:07.542Z,3.47
2022-11-27T14:25:21.959Z,3.58
2022-11-27T14:30:31.415Z,3.58
2022-11-27T14:35:36.655Z,3.70
2022-11-27T14:40:40.330Z,9.65
2022-11-27T14:45:46.487Z,3.55
2022-11-27T14:50:53.175Z,3.78
2022-11-27T14:55:59.172Z,3.42
2022-11-27T15:01:06.183Z,3.28
2022-11-27T15:06:21.202Z,3.50
2022-11-27T15:11:53.853Z,3.17
2022-11-27T15:16:52.547Z,3.58
2022-11-27T15:21:59.281Z,2.70
2022-11-27T15:27:19.341Z,3.40
2022-11-27T15:32:24.898Z,3.05
2022-11-27T15:37:34.077Z,3.38
2022-11-27T15:42:37.729Z,3.35
2022-11-27T15:47:49.739Z,3.33
2022-11-27T15:52:54.815Z,4.03
2022-11-27T15:57:58.502Z,3.83
2022-11-27T16:03:02.163Z,3.47
2022-11-27T16:08:07.863Z,3.65
2022-11-27T16:13:11.636Z,3.53
2022-11-27T16:18:15.301Z,3.60
2022-11-27T16:23:20.418Z,3.65
2022-11-27T16:28:24.373Z,3.63
2022-11-27T16:33:28.715Z,3.72
2022-11-27T16:38:34.238Z,3.85
2022-11-27T16:43:40.695Z,4.03
2022-11-27T16:48:46.087Z,3.65
2022-11-27T16:53:53.454Z,4.13
2022-11-27T16:59:02.666Z,4.03
2022-11-27T17:04:10.097Z,5.05
2022-11-27T17:09:16.926Z,4.27
2022-11-27T17:14:20.882Z,4.40
2022-11-27T17:19:27.245Z,4.50
2022-11-27T17:24:35.516Z,4.85
2022-11-27T17:29:40.979Z,5.40
2022-11-27T17:34:45.333Z,4.97
2022-11-27T17:39:51.014Z,4.63
2022-11-27T17:44:56.168Z,3.90
2022-11-27T17:50:01.192Z,4.90
2022-11-27T17:55:07.671Z,4.78
2022-11-27T18:00:12.975Z,6.95
2022-11-27T18:05:19.326Z,5.45
2022-11-27T18:10:24.637Z,5.32
2022-11-27T18:15:29.501Z,4.87
2022-11-27T18:20:33.353Z,5.13
2022-11-27T18:25:47.730Z,4.70
2022-11-27T18:30:52.931Z,4.68
2022-11-27T18:35:56.805Z,4.68
2022-11-27T18:41:08.574Z,5.18
2022-11-27T18:46:15.282Z,5.60
2022-11-27T18:51:20.810Z,5.45
2022-11-27T18:56:29.462Z,4.63
2022-11-27T19:01:41.461Z,5.05
2022-11-27T19:06:46.208Z,5.13
2022-11-27T19:11:51.310Z,5.15
2022-11-27T19:16:56.887Z,4.88
2022-11-27T19:22:00.822Z,5.57
2022-11-27T19:27:06.060Z,5.10
2022-11-27T19:32:09.953Z,5.13
2022-11-27T19:37:13.930Z,5.07
2022-11-27T19:42:18.952Z,5.05
2022-11-27T19:47:22.852Z,5.03
2022-11-27T19:52:26.701Z,5.50
2022-11-27T19:57:31.849Z,5.10
2022-11-27T20:02:36.568Z,5.40
2022-11-27T20:07:40.449Z,5.35
2022-11-27T20:12:45.627Z,5.07
2022-11-27T20:17:49.719Z,5.40
2022-11-27T20:22:53.420Z,5.47
2022-11-27T20:27:58.552Z,5.43
2022-11-27T20:33:07.373Z,6.40
2022-11-27T20:38:11.950Z,5.50
2022-11-27T20:43:17.463Z,5.57
2022-11-27T20:48:22.271Z,5.85
2022-11-27T20:53:25.986Z,5.97
2022-11-27T20:58:31.411Z,4.97
2022-11-27T21:03:35.375Z,5.10
2022-11-27T21:08:39.283Z,5.43
2022-11-27T21:13:44.367Z,5.10
2022-11-27T21:18:48.113Z,5.95
2022-11-27T21:23:51.812Z,5.55
2022-11-27T21:28:56.858Z,6.35
2022-11-27T21:34:02.191Z,6.00
2022-11-27T21:39:08.556Z,5.90
2022-11-27T21:44:14.131Z,5.85
2022-11-27T21:49:21.598Z,5.60
2022-11-27T21:54:25.336Z,5.72
2022-11-27T21:59:30.517Z,5.40
2022-11-27T22:04:34.438Z,5.57
2022-11-27T22:09:38.076Z,4.97
2022-11-27T22:14:43.374Z,5.38
2022-11-27T22:19:47.328Z,4.85
2022-11-27T22:24:51.327Z,5.65
2022-11-27T22:29:56.531Z,5.60
2022-11-27T22:35:00.374Z,5.32
2022-11-27T22:40:04.409Z,4.57
2022-11-27T22:45:10.902Z,4.57
2022-11-27T22:50:14.650Z,4.47
2022-11-27T22:55:18.476Z,4.72
2022-11-27T23:00:24.156Z,4.32
2022-11-27T23:05:27.847Z,4.70
2022-11-27T23:10:31.536Z,4.57
2022-11-27T23:15:36.591Z,4.72
2022-11-27T23:20:43.627Z,4.75
2022-11-27T23:25:47.341Z,4.25
2022-11-27T23:31:08.637Z,4.15
2022-11-27T23:36:15.976Z,4.70
2022-11-27T23:41:21.546Z,4.82
2022-11-27T23:46:28.414Z,4.88
2022-11-27T23:51:34.148Z,4.65
2022-11-27T23:56:39.326Z,3.97
